Time;durP1;ratioP1;P1;durP2;ratioP2;P2;SDS_P1;SDS_P2;PMS_P1;PMS_P2;Temp;Humidity;BMP_temperature;BMP_pressure;BME280_temperature;BME280_humidity;BME280_pressure;Samples;Min_cycle;Max_cycle;Signal;HPM_P1;HPM_P2
2022/09/05 00:02:01;;;;;;;1.83;1.70;;;21.70;81.90;;;;;;5064623;28;20029;-35
2022/09/05 00:05:10;;;;;;;2.38;1.58;;;21.70;82.00;;;;;;5066426;28;20031;-36
2022/09/05 00:07:58;;;;;;;3.53;1.90;;;21.70;82.10;;;;;;5057285;28;20468;-36
2022/09/05 00:11:01;;;;;;;2.28;1.55;;;21.70;82.10;;;;;;5065339;28;20029;-36
2022/09/05 00:13:36;;;;;;;2.78;1.90;;;21.70;82.20;;;;;;5065936;28;20476;-37
2022/09/05 00:16:26;;;;;;;3.25;1.67;;;21.70;82.30;;;;;;5065001;28;20480;-37
2022/09/05 00:19:17;;;;;;;2.03;1.73;;;21.60;82.40;;;;;;5066061;28;20177;-35
2022/09/05 00:21:58;;;;;;;2.17;1.75;;;21.70;82.60;;;;;;5065202;28;20908;-36
2022/09/05 00:24:58;;;;;;;2.08;1.67;;;21.60;82.50;;;;;;5064748;28;20044;-36
2022/09/05 00:27:44;;;;;;;1.73;1.63;;;21.60;82.70;;;;;;5064665;28;20526;-38
2022/09/05 00:30:16;;;;;;;2.70;1.80;;;21.60;82.70;;;;;;5065174;28;20052;-37
2022/09/05 00:33:03;;;;;;;1.70;1.60;;;21.60;82.70;;;;;;5061769;28;20131;-37
2022/09/05 00:36:13;;;;;;;2.50;1.80;;;21.60;82.90;;;;;;5066062;28;20036;-36
2022/09/05 00:38:50;;;;;;;1.80;1.70;;;21.60;83.00;;;;;;5034032;28;20487;-36
2022/09/05 00:41:17;;;;;;;2.90;2.08;;;21.60;83.00;;;;;;5043021;28;20021;-35
2022/09/05 00:43:47;;;;;;;2.95;2.20;;;21.70;83.20;;;;;;5054230;28;20087;-36
2022/09/05 00:46:21;;;;;;;2.30;1.85;;;21.60;83.30;;;;;;5065532;28;20031;-35
2022/09/05 00:48:53;;;;;;;3.25;1.90;;;21.60;83.40;;;;;;5054981;28;20467;-36
2022/09/05 00:51:49;;;;;;;2.75;1.90;;;21.60;83.50;;;;;;5064135;28;20025;-35
2022/09/05 00:54:39;;;;;;;3.38;1.70;;;21.60;83.60;;;;;;5057838;28;20056;-35
2022/09/05 00:57:35;;;;;;;3.88;2.08;;;21.60;83.70;;;;;;5064952;28;20427;-35
2022/09/05 01:00:06;;;;;;;2.40;2.20;;;21.60;83.80;;;;;;5064822;28;20020;-36
2022/09/05 01:03:14;;;;;;;3.05;2.22;;;21.60;83.80;;;;;;5065144;28;20127;-37
2022/09/05 01:05:52;;;;;;;4.00;2.30;;;21.60;84.10;;;;;;5044256;28;20112;-35
2022/09/05 01:08:26;;;;;;;2.38;2.17;;;21.60;84.10;;;;;;5061719;28;20033;-35
2022/09/05 01:11:14;;;;;;;3.67;2.67;;;21.60;84.40;;;;;;5065323;28;20037;-35
2022/09/05 01:13:53;;;;;;;2.45;2.13;;;21.60;84.70;;;;;;5064289;28;20020;-35
2022/09/05 01:16:26;;;;;;;2.85;2.33;;;21.50;84.80;;;;;;5065091;28;20028;-34
2022/09/05 01:19:11;;;;;;;2.45;2.20;;;21.50;84.90;;;;;;5063815;28;20024;-36
2022/09/05 01:21:58;;;;;;;3.83;2.80;;;21.50;85.10;;;;;;5065173;28;20059;-36
2022/09/05 01:24:54;;;;;;;3.00;2.70;;;21.50;85.20;;;;;;5064948;28;20059;-36
2022/09/05 01:27:44;;;;;;;3.53;2.50;;;21.40;85.50;;;;;;5064325;28;20124;-36
2022/09/05 01:30:32;;;;;;;3.00;2.40;;;21.40;85.50;;;;;;5055139;28;20032;-37
2022/09/05 01:33:16;;;;;;;2.83;2.42;;;21.40;85.50;;;;;;5064371;28;20031;-37
2022/09/05 01:35:59;;;;;;;3.05;2.33;;;21.40;85.50;;;;;;5065391;28;20456;-36
2022/09/05 01:38:39;;;;;;;2.75;2.40;;;21.40;85.70;;;;;;5064319;28;20040;-36
2022/09/05 01:41:10;;;;;;;2.63;2.42;;;21.40;85.80;;;;;;5063327;28;20165;-36
2022/09/05 01:44:00;;;;;;;2.92;2.70;;;21.40;86.00;;;;;;5064341;28;20456;-36
2022/09/05 01:46:33;;;;;;;3.17;2.80;;;21.40;86.20;;;;;;5065102;28;20032;-36
2022/09/05 01:49:23;;;;;;;3.10;2.55;;;21.40;86.20;;;;;;5063589;28;20427;-37
2022/09/05 01:52:11;;;;;;;3.47;2.80;;;21.30;86.70;;;;;;5064131;28;20027;-36
2022/09/05 01:54:52;;;;;;;3.53;2.90;;;21.30;86.70;;;;;;5063299;28;20048;-37
2022/09/05 01:58:02;;;;;;;3.90;3.28;;;21.30;86.90;;;;;;5045135;28;20115;-36
2022/09/05 02:00:42;;;;;;;2.88;2.58;;;21.30;87.20;;;;;;5057538;28;20040;-36
2022/09/05 02:03:38;;;;;;;3.10;2.60;;;21.30;87.20;;;;;;5053082;28;20041;-36
2022/09/05 02:06:29;;;;;;;2.78;2.58;;;21.20;87.50;;;;;;5062621;28;20491;-36
2022/09/05 02:09:09;;;;;;;5.13;3.03;;;21.20;87.60;;;;;;5065143;28;20040;-37
2022/09/05 02:11:44;;;;;;;3.78;3.30;;;21.10;87.80;;;;;;5058341;28;20135;-35
2022/09/05 02:14:29;;;;;;;3.58;3.25;;;21.10;88.10;;;;;;5068668;28;20028;-38
2022/09/05 02:17:07;;;;;;;3.97;3.58;;;21.10;88.30;;;;;;5058468;28;20109;-36
2022/09/05 02:19:44;;;;;;;4.85;3.20;;;21.10;88.30;;;;;;5067728;28;20322;-36
2022/09/05 02:22:14;;;;;;;5.43;3.28;;;21.10;88.50;;;;;;5067941;28;20484;-35
2022/09/05 02:24:47;;;;;;;3.85;3.40;;;21.00;88.50;;;;;;5067442;28;20387;-35
2022/09/05 02:27:21;;;;;;;3.72;3.35;;;21.00;88.80;;;;;;5068082;28;20037;-37
2022/09/05 02:30:04;;;;;;;3.58;3.22;;;21.00;89.10;;;;;;5066544;28;20031;-35
2022/09/05 02:32:45;;;;;;;4.88;3.70;;;20.90;89.20;;;;;;5067941;28;20036;-35
2022/09/05 02:35:20;;;;;;;3.28;2.95;;;20.90;89.40;;;;;;5067942;28;20013;-35
2022/09/05 02:38:04;;;;;;;4.40;3.58;;;20.90;89.50;;;;;;5066914;28;20039;-37
2022/09/05 02:40:29;;;;;;;4.13;3.78;;;20.90;89.60;;;;;;5067263;28;20025;-36
2022/09/05 02:43:18;;;;;;;5.15;3.55;;;20.80;89.70;;;;;;5067428;28;20040;-35
2022/09/05 02:46:03;;;;;;;4.38;3.42;;;20.80;90.00;;;;;;5067875;28;20067;-36
2022/09/05 02:49:06;;;;;;;4.80;4.00;;;20.80;90.10;;;;;;5067277;28;20029;-37
2022/09/05 02:51:42;;;;;;;4.35;3.95;;;20.80;90.10;;;;;;5049487;28;20151;-36
2022/09/05 02:54:18;;;;;;;4.10;3.65;;;20.70;90.20;;;;;;5066992;28;20106;-36
2022/09/05 02:57:01;;;;;;;4.95;4.10;;;20.70;90.30;;;;;;5066926;28;20349;-36
2022/09/05 02:59:33;;;;;;;4.05;3.65;;;20.70;90.40;;;;;;5047526;28;20475;-36
2022/09/05 03:02:20;;;;;;;4.57;3.90;;;20.60;90.40;;;;;;5063135;28;20023;-36
2022/09/05 03:05:06;;;;;;;6.30;3.97;;;20.60;90.50;;;;;;5066152;28;20492;-36
2022/09/05 03:08:00;;;;;;;5.07;4.10;;;20.60;90.60;;;;;;5067063;28;20049;-36
2022/09/05 03:11:01;;;;;;;5.30;4.80;;;20.50;90.70;;;;;;5066928;28;20024;-36
2022/09/05 03:13:56;;;;;;;5.05;4.28;;;20.50;90.70;;;;;;5064995;28;20462;-37
2022/09/05 03:16:41;;;;;;;5.13;4.63;;;20.50;90.80;;;;;;5067319;28;20025;-34
2022/09/05 03:19:43;;;;;;;4.38;3.97;;;20.50;90.90;;;;;;5066473;28;20047;-35
2022/09/05 03:22:36;;;;;;;5.38;4.30;;;20.50;90.90;;;;;;5067057;28;20031;-36
2022/09/05 03:25:40;;;;;;;6.18;4.40;;;20.50;90.90;;;;;;5066975;28;20070;-37
2022/09/05 03:28:14;;;;;;;5.10;4.60;;;20.40;90.90;;;;;;5066398;28;20455;-35
2022/09/05 03:31:06;;;;;;;5.53;4.75;;;20.40;90.90;;;;;;5066554;28;20051;-37
2022/09/05 03:34:13;;;;;;;6.40;5.00;;;20.40;91.00;;;;;;5066394;28;20032;-35
2022/09/05 03:36:57;;;;;;;4.35;3.95;;;20.40;91.10;;;;;;5067319;28;20043;-36
2022/09/05 03:39:28;;;;;;;4.82;4.35;;;20.40;91.10;;;;;;5055602;28;20025;-35
2022/09/05 03:42:30;;;;;;;5.93;5.30;;;20.30;91.10;;;;;;5066683;28;20020;-37
2022/09/05 03:45:26;;;;;;;6.13;5.03;;;20.30;91.20;;;;;;5058554;28;20317;-36
2022/09/05 03:47:54;;;;;;;5.90;5.40;;;20.30;91.40;;;;;;5066099;28;20548;-36
2022/09/05 03:50:26;;;;;;;5.72;5.15;;;20.30;91.40;;;;;;5066818;28;20033;-35
2022/09/05 03:53:10;;;;;;;5.75;5.22;;;20.20;91.40;;;;;;5066613;28;20034;-35
2022/09/05 03:55:57;;;;;;;4.75;4.32;;;20.30;91.60;;;;;;5066015;28;20496;-36
2022/09/05 03:58:33;;;;;;;6.97;5.45;;;20.20;91.60;;;;;;5067287;28;20514;-37
2022/09/05 04:01:35;;;;;;;5.95;5.43;;;20.20;91.60;;;;;;5066206;28;20025;-34
2022/09/05 04:04:19;;;;;;;6.32;5.68;;;20.20;91.70;;;;;;5066162;28;20036;-35
2022/09/05 04:06:56;;;;;;;7.40;5.80;;;20.20;91.70;;;;;;5046299;28;20040;-36
2022/09/05 04:09:45;;;;;;;7.18;5.78;;;20.20;91.80;;;;;;5062467;28;20112;-36
2022/09/05 04:12:16;;;;;;;7.22;6.07;;;20.20;91.80;;;;;;5066382;28;20105;-35
2022/09/05 04:14:54;;;;;;;8.65;4.82;;;20.20;91.90;;;;;;5064774;28;20130;-35
2022/09/05 04:17:41;;;;;;;8.43;6.10;;;20.10;91.90;;;;;;5066520;28;20533;-35
2022/09/05 04:20:17;;;;;;;7.10;6.00;;;20.10;92.00;;;;;;5065109;28;20059;-35
2022/09/05 04:23:03;;;;;;;5.30;4.75;;;20.10;92.00;;;;;;5064851;28;20040;-35
2022/09/05 04:26:05;;;;;;;7.90;6.05;;;20.10;92.00;;;;;;5065616;28;20093;-35
2022/09/05 04:28:54;;;;;;;5.85;5.22;;;20.10;92.10;;;;;;5065066;28;20021;-36
2022/09/05 04:31:19;;;;;;;6.88;6.18;;;20.10;92.10;;;;;;5056246;28;20089;-36
2022/09/05 04:33:56;;;;;;;6.82;6.00;;;20.00;92.10;;;;;;5064663;28;20036;-37
2022/09/05 04:36:32;;;;;;;7.40;6.68;;;20.00;92.30;;;;;;5054864;28;20028;-36
2022/09/05 04:39:17;;;;;;;7.15;6.45;;;20.00;92.40;;;;;;5065557;28;20510;-36
2022/09/05 04:42:00;;;;;;;7.57;6.50;;;19.90;92.50;;;;;;5056593;28;20039;-35
2022/09/05 04:44:39;;;;;;;10.38;6.72;;;19.90;92.60;;;;;;5063977;28;20365;-37
2022/09/05 04:47:19;;;;;;;7.70;6.90;;;19.90;92.80;;;;;;5065207;28;20032;-37
2022/09/05 04:50:05;;;;;;;8.10;7.22;;;19.90;92.90;;;;;;5063878;28;20063;-37
2022/09/05 04:52:41;;;;;;;7.70;6.63;;;19.80;93.00;;;;;;5065006;28;20025;-37
2022/09/05 04:55:09;;;;;;;7.25;6.55;;;19.80;93.10;;;;;;5064591;28;20047;-36
2022/09/05 04:57:49;;;;;;;7.75;7.00;;;19.80;93.10;;;;;;5064211;28;20029;-35
2022/09/05 05:00:38;;;;;;;8.70;7.20;;;19.70;93.20;;;;;;5065426;28;20024;-37
2022/09/05 05:03:12;;;;;;;8.80;7.28;;;19.70;93.30;;;;;;5065452;28;20036;-36
2022/09/05 05:06:06;;;;;;;7.75;6.97;;;19.70;93.40;;;;;;5065119;28;20056;-36
2022/09/05 05:08:52;;;;;;;9.05;7.55;;;19.70;93.50;;;;;;5065176;28;20143;-35
2022/09/05 05:11:19;;;;;;;7.35;6.63;;;19.70;93.50;;;;;;5064376;28;20025;-36
2022/09/05 05:13:52;;;;;;;8.40;7.38;;;19.70;93.60;;;;;;5064477;28;20119;-36
2022/09/05 05:16:27;;;;;;;7.15;6.30;;;19.60;93.60;;;;;;5065041;28;20071;-35
2022/09/05 05:19:00;;;;;;;7.10;6.40;;;19.60;93.70;;;;;;5064061;28;20035;-36
2022/09/05 05:21:29;;;;;;;7.25;5.95;;;19.60;93.70;;;;;;5064186;28;20116;-36
2022/09/05 05:24:14;;;;;;;7.47;6.60;;;19.60;93.70;;;;;;5064773;28;20053;-37
2022/09/05 05:26:54;;;;;;;7.70;6.57;;;19.70;93.80;;;;;;5063534;28;20110;-36
2022/09/05 05:29:39;;;;;;;9.15;6.97;;;19.70;93.80;;;;;;5064872;28;20070;-37
2022/09/05 05:32:06;;;;;;;6.07;5.47;;;19.60;93.80;;;;;;5064369;28;20032;-36
2022/09/05 05:34:39;;;;;;;7.85;7.05;;;19.70;93.80;;;;;;5044091;28;20037;-35
2022/09/05 05:37:44;;;;;;;6.78;6.07;;;19.70;93.80;;;;;;5060003;28;20028;-38
2022/09/05 05:40:17;;;;;;;6.68;6.07;;;19.70;93.90;;;;;;5044167;28;20119;-35
2022/09/05 05:42:45;;;;;;;6.60;5.90;;;19.70;93.90;;;;;;5060786;28;20025;-36
2022/09/05 05:45:26;;;;;;;6.93;6.05;;;19.70;93.90;;;;;;5068185;28;20056;-37
2022/09/05 05:47:56;;;;;;;7.63;6.93;;;19.70;93.90;;;;;;5067714;28;20024;-36
2022/09/05 05:50:41;;;;;;;7.55;6.55;;;19.80;94.00;;;;;;5068522;28;20028;-36
2022/09/05 05:53:39;;;;;;;6.28;5.68;;;19.80;94.00;;;;;;5072964;28;20024;-36
2022/09/05 05:56:31;;;;;;;6.53;5.90;;;19.80;94.00;;;;;;5068308;28;20043;-36
2022/09/05 05:59:09;;;;;;;6.38;5.78;;;19.80;94.10;;;;;;5067283;28;20040;-36
2022/09/05 06:01:57;;;;;;;7.35;6.35;;;19.90;94.10;;;;;;5066585;28;20032;-37
2022/09/05 06:04:51;;;;;;;7.07;6.38;;;19.90;94.10;;;;;;5048547;28;20041;-37
2022/09/05 06:07:38;;;;;;;8.48;5.90;;;19.90;94.10;;;;;;5060540;28;20072;-36
2022/09/05 06:10:20;;;;;;;6.90;6.20;;;19.90;94.10;;;;;;5067630;28;20105;-36
2022/09/05 06:13:01;;;;;;;;;;;19.90;94.10;;;;;;5067657;28;20504;-35
2022/09/05 06:16:04;;;;;;;9.23;6.18;;;20.00;94.10;;;;;;5067518;28;20271;-37
2022/09/05 06:18:49;;;;;;;6.15;5.55;;;20.00;94.10;;;;;;5065489;28;20056;-36
2022/09/05 06:21:32;;;;;;;6.30;5.70;;;20.00;94.10;;;;;;5061809;28;20086;-36
2022/09/05 06:24:12;;;;;;;7.85;5.45;;;20.10;94.20;;;;;;5067577;28;20060;-35
2022/09/05 06:27:00;;;;;;;6.78;5.40;;;20.10;94.20;;;;;;5067286;28;20135;-36
2022/09/05 06:29:56;;;;;;;8.13;5.53;;;20.20;94.20;;;;;;5066436;28;20380;-37
2022/09/05 06:32:32;;;;;;;9.35;5.55;;;20.20;94.20;;;;;;5067221;28;20037;-35
2022/09/05 06:35:15;;;;;;;7.40;5.35;;;20.30;94.20;;;;;;5067638;28;20019;-34
2022/09/05 06:38:03;;;;;;;5.70;5.10;;;20.30;94.20;;;;;;5066929;28;20111;-35
2022/09/05 06:40:59;;;;;;;6.38;5.20;;;20.30;94.30;;;;;;5056908;28;20033;-35
2022/09/05 06:44:06;;;;;;;5.20;4.70;;;20.40;94.30;;;;;;5065485;28;20035;-36
2022/09/05 06:46:36;;;;;;;4.50;4.10;;;20.50;94.50;;;;;;5066594;28;20033;-36
2022/09/05 06:49:16;;;;;;;5.20;4.70;;;20.50;94.20;;;;;;5067408;28;20020;-35
2022/09/05 06:51:55;;;;;;;5.50;5.00;;;20.60;94.20;;;;;;5067240;28;20017;-35
2022/09/05 06:54:42;;;;;;;5.70;5.20;;;20.60;94.20;;;;;;5066929;28;20052;-36
2022/09/05 06:57:45;;;;;;;6.07;5.03;;;20.60;94.20;;;;;;5067573;28;20115;-36
2022/09/05 07:00:22;;;;;;;;;;;20.70;94.20;;;;;;5068187;28;20058;-36
2022/09/05 07:03:12;;;;;;;4.97;4.47;;;20.70;94.10;;;;;;5067386;28;20050;-36
2022/09/05 07:05:46;;;;;;;6.18;4.82;;;20.80;94.10;;;;;;5067097;28;20056;-37
2022/09/05 07:08:25;;;;;;;5.80;4.75;;;20.80;94.10;;;;;;5067482;28;20016;-34
2022/09/05 07:10:58;;;;;;;5.07;4.22;;;20.90;94.10;;;;;;5065234;28;20128;-36
2022/09/05 07:13:36;;;;;;;8.98;6.35;;;20.90;94.10;;;;;;5067303;28;20017;-36
2022/09/05 07:16:17;;;;;;;6.97;5.50;;;21.00;94.10;;;;;;5065604;28;20039;-35
2022/09/05 07:19:16;;;;;;;5.55;4.97;;;21.10;94.10;;;;;;5065844;28;20367;-36
2022/09/05 07:21:51;;;;;;;5.97;5.35;;;21.10;94.00;;;;;;5067376;28;20055;-36
2022/09/05 07:24:21;;;;;;;7.53;5.43;;;21.20;94.00;;;;;;5066811;28;20503;-36
2022/09/05 07:26:48;;;;;;;5.93;5.32;;;21.30;93.90;;;;;;5066406;28;20071;-35
2022/09/05 07:29:19;;;;;;;7.63;5.00;;;21.30;93.90;;;;;;5067110;28;20131;-36
2022/09/05 07:31:50;;;;;;;6.70;5.40;;;21.40;93.90;;;;;;5062132;28;20082;-36
2022/09/05 07:34:27;;;;;;;6.63;4.53;;;21.40;93.80;;;;;;5067076;28;20357;-36
2022/09/05 07:37:00;;;;;;;4.97;4.47;;;21.50;93.80;;;;;;5062848;28;20043;-37
2022/09/05 07:39:33;;;;;;;5.50;5.00;;;21.60;93.80;;;;;;5065386;28;20029;-36
2022/09/05 07:42:05;;;;;;;5.22;4.30;;;21.60;93.70;;;;;;5065930;28;20513;-36
2022/09/05 07:44:35;;;;;;;5.25;4.75;;;21.70;93.70;;;;;;5066492;28;20028;-37
2022/09/05 07:47:18;;;;;;;4.97;4.43;;;21.80;93.60;;;;;;5065414;28;20119;-37
2022/09/05 07:49:45;;;;;;;5.28;4.55;;;21.80;93.60;;;;;;5066097;28;20099;-37
2022/09/05 07:52:18;;;;;;;4.90;4.40;;;21.80;93.50;;;;;;5066163;28;20013;-36
2022/09/05 07:54:47;;;;;;;5.53;4.35;;;21.90;93.50;;;;;;5065229;28;20402;-41
2022/09/05 07:57:20;;;;;;;4.10;3.42;;;22.00;93.40;;;;;;5066539;28;20154;-36
2022/09/05 07:59:50;;;;;;;5.28;4.65;;;22.10;93.30;;;;;;5064817;28;20036;-36
2022/09/05 08:02:16;;;;;;;4.85;4.20;;;22.10;93.20;;;;;;5065818;28;20017;-35
2022/09/05 08:04:41;;;;;;;4.63;4.20;;;22.20;93.20;;;;;;5066309;28;20445;-38
2022/09/05 08:07:21;;;;;;;5.50;4.03;;;22.20;93.10;;;;;;5064401;28;20032;-37
2022/09/05 08:09:52;;;;;;;6.03;3.95;;;22.30;93.00;;;;;;5045349;28;20107;-45
2022/09/05 08:12:22;;;;;;;4.10;3.70;;;22.30;93.00;;;;;;5061069;28;20024;-36
2022/09/05 08:15:01;;;;;;;5.35;4.18;;;22.30;92.90;;;;;;5065414;28;20032;-36
2022/09/05 08:17:26;;;;;;;4.95;3.50;;;22.40;92.90;;;;;;5065503;28;20021;-36
2022/09/05 08:20:13;;;;;;;3.95;3.55;;;22.40;92.80;;;;;;5065180;28;20392;-36
2022/09/05 08:22:57;;;;;;;4.10;3.70;;;22.40;92.80;;;;;;5064697;28;20518;-36
2022/09/05 08:25:31;;;;;;;3.63;3.33;;;22.50;92.70;;;;;;5046645;28;20427;-36
2022/09/05 08:28:19;;;;;;;4.10;3.70;;;22.50;92.60;;;;;;5061138;28;20052;-37
2022/09/05 08:31:11;;;;;;;4.97;3.80;;;22.60;92.80;;;;;;5045748;28;20056;-38
2022/09/05 08:33:37;;;;;;;4.40;3.47;;;22.60;92.50;;;;;;5044181;28;20064;-37
2022/09/05 08:36:22;;;;;;;4.28;3.88;;;22.70;92.40;;;;;;5065316;28;20021;-37
2022/09/05 08:38:49;;;;;;;3.92;3.45;;;22.70;92.40;;;;;;5063461;28;20443;-38
2022/09/05 08:41:35;;;;;;;4.25;3.42;;;22.80;92.30;;;;;;5065973;28;20044;-36
2022/09/05 08:44:36;;;;;;;4.22;3.40;;;22.80;92.20;;;;;;5063881;28;20629;-37
2022/09/05 08:47:15;;;;;;;4.20;3.13;;;23.00;92.10;;;;;;5043063;28;20068;-38
2022/09/05 08:50:18;;;;;;;3.42;3.13;;;23.00;92.00;;;;;;5063920;28;20118;-36
2022/09/05 08:53:12;;;;;;;4.57;3.28;;;23.10;91.90;;;;;;5064100;28;20448;-36
2022/09/05 08:56:00;;;;;;;3.17;2.78;;;23.10;91.80;;;;;;5062870;28;20071;-36
2022/09/05 08:58:49;;;;;;;2.53;2.33;;;23.20;91.70;;;;;;5065507;28;20062;-35
2022/09/05 09:01:30;;;;;;;4.10;2.40;;;23.40;91.60;;;;;;5065164;28;20036;-36
2022/09/05 09:04:08;;;;;;;2.95;2.28;;;23.40;91.50;;;;;;5064104;28;20028;-36
2022/09/05 09:07:01;;;;;;;3.15;2.30;;;23.50;91.30;;;;;;5065061;28;20063;-37
2022/09/05 09:09:41;;;;;;;4.22;2.45;;;23.50;91.20;;;;;;5064465;28;20029;-36
2022/09/05 09:12:13;;;;;;;2.20;1.88;;;23.70;91.20;;;;;;5063879;28;20078;-35
2022/09/05 09:14:52;;;;;;;2.53;1.95;;;23.70;91.00;;;;;;5064501;28;20032;-36
2022/09/05 09:17:31;;;;;;;2.10;1.90;;;23.80;90.80;;;;;;5063686;28;20070;-37
2022/09/05 09:20:32;;;;;;;2.63;1.60;;;23.90;90.90;;;;;;5065254;28;20147;-37
2022/09/05 09:23:04;;;;;;;1.70;1.50;;;24.00;90.40;;;;;;5064658;28;20036;-37
2022/09/05 09:25:51;;;;;;;2.40;1.50;;;24.10;90.30;;;;;;5063934;28;20031;-36
2022/09/05 09:28:41;;;;;;;3.25;1.13;;;24.10;90.10;;;;;;5065669;28;20032;-36
2022/09/05 09:31:30;;;;;;;1.50;1.23;;;24.20;89.70;;;;;;5053758;28;20038;-37
2022/09/05 09:34:24;;;;;;;1.40;1.30;;;24.20;89.40;;;;;;5064652;28;20064;-35
2022/09/05 09:37:08;;;;;;;1.75;1.55;;;24.30;89.00;;;;;;5064947;28;20451;-36
2022/09/05 09:39:52;;;;;;;2.05;1.35;;;24.40;88.60;;;;;;5063292;28;20440;-35
2022/09/05 09:42:55;;;;;;;1.67;1.17;;;24.40;88.50;;;;;;5064901;28;20032;-35
2022/09/05 09:45:33;;;;;;;;;;;24.50;87.90;;;;;;5063526;28;20188;-36
2022/09/05 09:48:11;;;;;;;1.15;1.05;;;24.50;87.80;;;;;;5045063;28;20051;-36
2022/09/05 09:51:05;;;;;;;3.05;1.30;;;24.60;87.40;;;;;;5059780;28;20033;-37
2022/09/05 09:53:45;;;;;;;1.35;1.13;;;24.60;87.60;;;;;;5043826;28;20478;-37
2022/09/05 09:56:21;;;;;;;1.20;1.10;;;24.70;86.50;;;;;;5063511;28;20044;-37
2022/09/05 09:59:17;;;;;;;1.40;1.20;;;24.90;86.20;;;;;;5064230;28;20031;-36
2022/09/05 10:01:50;;;;;;;1.42;1.33;;;24.90;85.70;;;;;;5060234;28;20033;-35
2022/09/05 10:04:31;;;;;;;1.13;1.02;;;25.00;85.50;;;;;;5064166;28;20033;-36
2022/09/05 10:07:30;;;;;;;1.10;1.00;;;25.00;85.00;;;;;;5063834;28;20017;-35
2022/09/05 10:10:11;;;;;;;2.15;0.98;;;25.10;84.60;;;;;;5063923;28;20099;-36
2022/09/05 10:12:55;;;;;;;2.03;1.00;;;25.10;84.00;;;;;;5054083;28;20036;-36
2022/09/05 10:15:33;;;;;;;1.40;1.00;;;25.20;83.10;;;;;;5063775;28;20095;-36
2022/09/05 10:18:20;;;;;;;1.10;0.90;;;25.30;82.90;;;;;;5064227;28;20033;-37
2022/09/05 10:21:27;;;;;;;1.25;1.15;;;25.40;82.20;;;;;;5062777;28;20535;-36
2022/09/05 10:24:36;;;;;;;2.58;1.00;;;25.40;81.70;;;;;;5049808;28;20056;-36
2022/09/05 10:27:12;;;;;;;1.02;0.93;;;25.50;80.70;;;;;;5054888;28;20063;-36
2022/09/05 10:29:43;;;;;;;2.25;0.82;;;25.60;80.30;;;;;;5065108;28;20115;-37
2022/09/05 10:33:02;;;;;;;1.40;0.80;;;25.60;79.90;;;;;;5068013;28;20028;-37
2022/09/05 10:35:35;;;;;;;1.10;1.00;;;25.70;79.30;;;;;;5058133;28;20098;-35
2022/09/05 10:38:20;;;;;;;1.00;0.90;;;25.80;78.00;;;;;;5064935;28;20021;-36
2022/09/05 10:40:49;;;;;;;1.65;1.30;;;25.90;77.80;;;;;;5066899;28;20090;-35
2022/09/05 10:43:27;;;;;;;0.90;0.77;;;25.90;77.10;;;;;;5067160;28;20433;-37
2022/09/05 10:46:10;;;;;;;1.05;0.98;;;26.10;76.60;;;;;;5067593;28;20476;-37
2022/09/05 10:48:53;;;;;;;0.80;0.80;;;26.20;76.20;;;;;;5067349;28;20036;-37
2022/09/05 10:51:28;;;;;;;1.20;0.98;;;26.30;76.10;;;;;;5067436;28;20027;-35
2022/09/05 10:54:07;;;;;;;0.98;0.85;;;26.30;75.50;;;;;;5056191;28;20044;-36
2022/09/05 10:56:41;;;;;;;0.80;0.80;;;26.40;74.80;;;;;;5066677;28;20039;-36
2022/09/05 10:59:30;;;;;;;1.45;1.00;;;26.50;74.90;;;;;;5056654;28;20487;-37
2022/09/05 11:02:06;;;;;;;1.50;1.10;;;26.50;74.10;;;;;;5066747;28;20487;-37
2022/09/05 11:05:02;;;;;;;1.65;1.30;;;26.60;73.30;;;;;;5046524;28;20614;-36
2022/09/05 11:07:52;;;;;;;1.15;0.88;;;26.70;72.90;;;;;;5053449;28;20040;-37
2022/09/05 11:10:35;;;;;;;1.25;0.77;;;26.70;72.50;;;;;;5067304;28;20479;-38
2022/09/05 11:13:41;;;;;;;0.75;0.75;;;26.70;72.60;;;;;;5065941;28;20025;-36
2022/09/05 11:16:31;;;;;;;1.13;0.90;;;26.80;72.70;;;;;;5046872;28;20021;-37
2022/09/05 11:18:58;;;;;;;1.38;1.00;;;26.80;72.40;;;;;;5065112;28;20054;-37
2022/09/05 11:21:39;;;;;;;1.23;0.90;;;26.80;72.00;;;;;;5066928;28;20300;-37
2022/09/05 11:24:24;;;;;;;0.80;0.80;;;26.90;71.80;;;;;;5066017;28;20032;-37
2022/09/05 11:26:58;;;;;;;1.02;0.93;;;27.00;71.10;;;;;;5066648;28;20051;-37
2022/09/05 11:29:33;;;;;;;1.10;0.98;;;27.10;70.70;;;;;;5066705;28;20021;-37
2022/09/05 11:32:21;;;;;;;0.98;0.75;;;27.10;70.20;;;;;;5066319;28;20028;-38
2022/09/05 11:35:05;;;;;;;1.15;0.93;;;27.20;69.50;;;;;;5065833;28;20372;-36
2022/09/05 11:37:55;;;;;;;1.23;1.02;;;27.40;68.70;;;;;;5066264;28;20409;-36
2022/09/05 11:40:46;;;;;;;2.30;1.00;;;27.40;68.80;;;;;;5066265;28;20476;-35
2022/09/05 11:43:35;;;;;;;1.50;0.90;;;27.40;68.30;;;;;;5066265;28;20043;-35
2022/09/05 11:46:08;;;;;;;1.00;0.90;;;27.50;68.30;;;;;;5066065;28;20024;-36
2022/09/05 11:49:12;;;;;;;0.98;0.80;;;27.40;68.00;;;;;;5078943;28;20013;-37
2022/09/05 11:52:09;;;;;;;0.98;0.82;;;27.50;68.30;;;;;;5065452;28;20021;-38
2022/09/05 11:54:59;;;;;;;0.90;0.90;;;27.50;67.50;;;;;;5065995;28;20048;-37
2022/09/05 11:57:52;;;;;;;0.90;0.80;;;27.60;67.20;;;;;;5046479;28;20104;-37
2022/09/05 12:00:22;;;;;;;1.38;0.80;;;27.70;67.40;;;;;;5064131;28;20067;-36
2022/09/05 12:03:07;;;;;;;1.02;0.75;;;27.70;67.40;;;;;;5065779;28;20047;-37
2022/09/05 12:06:12;;;;;;;0.80;0.80;;;27.70;67.60;;;;;;5065592;28;20037;-37
2022/09/05 12:08:44;;;;;;;0.88;0.70;;;27.70;67.70;;;;;;5065817;28;20024;-36
2022/09/05 12:11:43;;;;;;;0.75;0.75;;;27.60;67.30;;;;;;5066431;28;20053;-37
2022/09/05 12:14:42;;;;;;;1.17;0.85;;;27.60;67.10;;;;;;5065525;28;20032;-36
2022/09/05 12:17:26;;;;;;;0.77;0.65;;;27.60;67.10;;;;;;5054244;28;20113;-36
2022/09/05 12:20:05;;;;;;;1.88;1.52;;;27.60;66.60;;;;;;5064978;28;20028;-37
2022/09/05 12:22:36;;;;;;;1.10;1.00;;;27.70;66.20;;;;;;5065707;28;20613;-36
2022/09/05 12:25:21;;;;;;;1.00;0.90;;;27.80;66.30;;;;;;5065614;28;20032;-37
2022/09/05 12:27:51;;;;;;;0.80;0.80;;;27.90;65.50;;;;;;5064005;28;20032;-37
2022/09/05 12:30:28;;;;;;;1.00;0.90;;;27.90;65.30;;;;;;5065381;28;20056;-37
2022/09/05 12:33:15;;;;;;;0.93;0.80;;;27.90;65.00;;;;;;5065281;28;20047;-37
2022/09/05 12:35:43;;;;;;;0.90;0.90;;;27.90;65.00;;;;;;5064333;28;20170;-36
2022/09/05 12:38:33;;;;;;;0.88;0.88;;;27.90;64.90;;;;;;5065629;28;20020;-38
2022/09/05 12:41:17;;;;;;;0.98;0.90;;;27.90;62.60;;;;;;5057032;28;20421;-37
2022/09/05 12:43:54;;;;;;;1.55;1.25;;;27.90;63.00;;;;;;5065067;28;21088;-35
2022/09/05 12:46:29;;;;;;;0.70;0.70;;;28.00;63.10;;;;;;5065926;28;20063;-36
2022/09/05 12:49:33;;;;;;;1.40;0.88;;;28.00;63.10;;;;;;5064751;28;20153;-36
2022/09/05 12:52:21;;;;;;;2.00;0.90;;;28.00;62.10;;;;;;5058526;28;20178;-37
2022/09/05 12:54:53;;;;;;;1.00;0.90;;;28.10;62.50;;;;;;5064355;28;20067;-37
2022/09/05 12:57:27;;;;;;;0.70;0.70;;;28.10;62.60;;;;;;5064857;28;20081;-37
2022/09/05 12:59:56;;;;;;;1.38;0.93;;;28.10;62.70;;;;;;5064933;28;20040;-36
2022/09/05 13:02:29;;;;;;;1.23;0.85;;;28.20;62.00;;;;;;5063869;28;20025;-37
2022/09/05 13:05:00;;;;;;;1.10;0.85;;;28.30;60.80;;;;;;5065045;28;20044;-38
2022/09/05 13:07:39;;;;;;;0.82;0.82;;;28.40;60.00;;;;;;5065335;28;20028;-37
2022/09/05 13:10:17;;;;;;;1.02;0.80;;;28.50;60.80;;;;;;5064582;28;20100;-36
2022/09/05 13:12:46;;;;;;;0.70;0.70;;;28.60;61.40;;;;;;5064689;28;20037;-37
2022/09/05 13:15:36;;;;;;;2.45;0.90;;;28.60;61.40;;;;;;5064668;28;20032;-36
2022/09/05 13:18:08;;;;;;;1.15;1.05;;;28.70;61.00;;;;;;5063751;28;20473;-38
2022/09/05 13:20:36;;;;;;;0.90;0.90;;;28.70;60.60;;;;;;5065086;28;20052;-37
2022/09/05 13:23:31;;;;;;;1.17;1.08;;;28.80;60.00;;;;;;5063452;28;20032;-38
2022/09/05 13:26:11;;;;;;;0.80;0.75;;;28.80;60.30;;;;;;5065039;28;20037;-36
2022/09/05 13:28:42;;;;;;;0.90;0.80;;;28.90;60.70;;;;;;5061251;28;20464;-36
2022/09/05 13:31:09;;;;;;;0.52;0.52;;;29.00;60.80;;;;;;5064006;28;20036;-37
2022/09/05 13:33:50;;;;;;;0.73;0.73;;;29.10;60.90;;;;;;5063942;28;20098;-37
2022/09/05 13:36:23;;;;;;;0.65;0.65;;;29.10;60.90;;;;;;5064933;28;20028;-36
2022/09/05 13:39:02;;;;;;;1.02;0.82;;;29.20;60.70;;;;;;5062450;28;20028;-36
2022/09/05 13:41:31;;;;;;;0.95;0.70;;;29.30;60.50;;;;;;5064073;28;20055;-36
2022/09/05 13:43:58;;;;;;;0.75;0.73;;;29.20;60.30;;;;;;5063839;28;20048;-36
2022/09/05 13:46:52;;;;;;;0.77;0.68;;;29.30;60.10;;;;;;5063572;28;20055;-37
2022/09/05 13:49:25;;;;;;;0.70;0.70;;;29.30;60.60;;;;;;5064997;28;20024;-36
2022/09/05 13:52:06;;;;;;;1.00;0.68;;;29.30;60.50;;;;;;5063860;28;20242;-36
2022/09/05 13:54:45;;;;;;;0.73;0.73;;;29.40;60.50;;;;;;5060605;28;20036;-36
2022/09/05 13:57:26;;;;;;;0.60;0.60;;;29.50;60.70;;;;;;5064652;28;20031;-36
2022/09/05 14:00:11;;;;;;;0.70;0.70;;;29.60;60.50;;;;;;5061944;28;20020;-35
2022/09/05 14:03:02;;;;;;;0.68;0.60;;;29.60;60.40;;;;;;5063760;28;20669;-36
2022/09/05 14:05:40;;;;;;;0.60;0.60;;;29.80;60.60;;;;;;5056732;28;20040;-38
2022/09/05 14:08:43;;;;;;;0.63;0.63;;;29.80;60.30;;;;;;5068298;28;20062;-37